Home > Products > Valid Products > TAF

000
FTUS44 KMEG 301326 AAA
TAFMKL
TAF AMD
KMKL 301326Z 3013/3112 04003KT P6SM SKC
     FM310100 00000KT P6SM SCT150
     FM310600 VRB03KT P6SM BKN250=



000
FTUS44 KMEG 301326 AAA
TAFMKL
TAF AMD
KMKL 301326Z 3013/3112 04003KT P6SM SKC
     FM310100 00000KT P6SM SCT150
     FM310600 VRB03KT P6SM BKN250=



000
FTUS44 KMEG 301127
TAFJBR
TAF
KJBR 301127Z 3012/3112 35006KT P6SM SKC
     FM301600 15005KT P6SM SKC
     FM310100 00000KT P6SM SCT150
     FM310600 VRB03KT P6SM BKN250=



000
FTUS44 KMEG 301127
TAFTUP
TAF
KTUP 301127Z 3012/3112 02005KT P6SM BKN090
     FM301400 04006KT P6SM SKC
     FM310100 00000KT P6SM SCT150
     FM310600 00000KT P6SM OVC100=



000
FTUS44 KMEG 301127
TAFTUP
TAF
KTUP 301127Z 3012/3112 02005KT P6SM BKN090
     FM301400 04006KT P6SM SKC
     FM310100 00000KT P6SM SCT150
     FM310600 00000KT P6SM OVC100=



000
FTUS44 KMEG 301127
TAFMEM
TAF
KMEM 301127Z 3012/3112 36005KT P6SM SKC
     FM301900 13004KT P6SM SKC
     FM310100 14003KT P6SM SCT150
     FM310600 19004KT P6SM OVC100=



000
FTUS44 KMEG 301127
TAFMEM
TAF
KMEM 301127Z 3012/3112 36005KT P6SM SKC
     FM301900 13004KT P6SM SKC
     FM310100 14003KT P6SM SCT150
     FM310600 19004KT P6SM OVC100=



000
FTUS44 KMEG 301127
TAFJBR
TAF
KJBR 301127Z 3012/3112 35006KT P6SM SKC
     FM301600 15005KT P6SM SKC
     FM310100 00000KT P6SM SCT150
     FM310600 VRB03KT P6SM BKN250=



000
FTUS44 KMEG 301127
TAFMKL
TAF
KMKL 301127Z 3012/3112 00000KT 4SM BR SKC
      TEMPO 3012/3013 1SM BR OVC003
     FM301400 04003KT P6SM SKC
     FM310100 00000KT P6SM SCT150
     FM310600 VRB03KT P6SM BKN250=



000
FTUS44 KMEG 300903 AAA
TAFMKL
TAF AMD
KMKL 300903Z 3009/3106 33005KT 3SM BR BKN100
      TEMPO 3009/3013 3/4SM BR OVC003
     FM301900 04003KT P6SM SKC
     FM310100 00000KT P6SM SCT150=



000
FTUS44 KMEG 300903 AAA
TAFMKL
TAF AMD
KMKL 300903Z 3009/3106 33005KT 3SM BR BKN100
      TEMPO 3009/3013 3/4SM BR OVC003
     FM301900 04003KT P6SM SKC
     FM310100 00000KT P6SM SCT150=



000
FTUS44 KMEG 300859 AAA
TAFMEM
TAF AMD
KMEM 300859Z 3009/3106 01004KT P6SM OVC070
     FM301000 02005KT P6SM SKC
      TEMPO 3010/3013 6SM BR
     FM301900 05003KT P6SM SKC
     FM310100 14003KT P6SM SCT150=



000
FTUS44 KMEG 300522
TAFJBR
TAF
KJBR 300522Z 3006/3106 34005KT P6SM SCT070
     FM300800 35004KT P6SM SKC
      TEMPO 3010/3013 5SM BR
     FM301600 07005KT P6SM SKC
     FM310100 16003KT P6SM SCT150=



000
FTUS44 KMEG 300522
TAFMEM
TAF
KMEM 300522Z 3006/3106 00000KT P6SM OVC050
     FM300700 32005KT P6SM BKN100
     FM301000 02005KT P6SM SKC
      TEMPO 3010/3013 6SM BR
     FM301900 05003KT P6SM SKC
     FM310100 14003KT P6SM SCT150=



000
FTUS44 KMEG 300522
TAFTUP
TAF
KTUP 300522Z 3006/3106 21010KT P6SM VCTS OVC070CB
      TEMPO 3006/3009 VRB10G25KT 2SM -TSRA BKN025 OVC040CB
     FM300900 35006KT P6SM -SHRA BKN040
     FM301100 02005KT P6SM BKN100
     FM301300 03005KT P6SM SKC
     FM301900 04003KT P6SM SKC
     FM310100 00000KT P6SM SCT150=



000
FTUS44 KMEG 300522
TAFMEM
TAF
KMEM 300522Z 3006/3106 00000KT P6SM OVC050
     FM300700 32005KT P6SM BKN100
     FM301000 02005KT P6SM SKC
      TEMPO 3010/3013 6SM BR
     FM301900 05003KT P6SM SKC
     FM310100 14003KT P6SM SCT150=



000
FTUS44 KMEG 300522
TAFTUP
TAF
KTUP 300522Z 3006/3106 21010KT P6SM VCTS OVC070CB
      TEMPO 3006/3009 VRB10G25KT 2SM -TSRA BKN025 OVC040CB
     FM300900 35006KT P6SM -SHRA BKN040
     FM301100 02005KT P6SM BKN100
     FM301300 03005KT P6SM SKC
     FM301900 04003KT P6SM SKC
     FM310100 00000KT P6SM SCT150=



000
FTUS44 KMEG 300522
TAFMKL
TAF
KMKL 300522Z 3006/3106 00000KT P6SM -SHRA VCTS BKN040CB OVC100
     FM300700 33005KT P6SM BKN100
     FM301000 01004KT 6SM BR SKC
      TEMPO 3010/3013 3SM BR
     FM301900 04003KT P6SM SKC
     FM310100 00000KT P6SM SCT150=



000
FTUS44 KMEG 300522
TAFMKL
TAF
KMKL 300522Z 3006/3106 00000KT P6SM -SHRA VCTS BKN040CB OVC100
     FM300700 33005KT P6SM BKN100
     FM301000 01004KT 6SM BR SKC
      TEMPO 3010/3013 3SM BR
     FM301900 04003KT P6SM SKC
     FM310100 00000KT P6SM SCT150=



000
FTUS44 KMEG 300340 AAB
TAFMEM
TAF AMD
KMEM 300340Z 3004/3024 23007KT P6SM VCTS BKN060CB OVC100
      TEMPO 3004/3007 VRB10G20KT 4SM TSRA BKN025 OVC040CB
     FM300700 32007KT P6SM BKN070
     FM301200 03007KT P6SM SKC
     FM301900 05005KT P6SM SKC=



000
FTUS44 KMEG 300259 AAA
TAFMEM
TAF AMD
KMEM 300259Z 3003/3024 23007KT P6SM VCSH BKN060 OVC100
      TEMPO 3005/3007 VRB10G20KT 4SM TSRA BKN025 OVC040CB
     FM300700 32007KT P6SM BKN070
     FM301200 03007KT P6SM SKC
     FM301900 05005KT P6SM SKC=



000
FTUS44 KMEG 292330
TAFTUP
TAF
KTUP 292330Z 3000/3024 20012G18KT P6SM SKC
     FM300100 21009KT P6SM SCT100
     FM300300 21007KT P6SM VCSH OVC040
      TEMPO 3005/3009 VRB10G25KT 2SM -TSRA BKN015 OVC025CB
     FM301000 36007KT 6SM BR VCSH SCT005 OVC015
     FM301400 04006KT P6SM SKC=



000
FTUS44 KMEG 292330
TAFMKL
TAF
KMKL 292330Z 3000/3024 18007KT P6SM SCT100
     FM300200 22005KT P6SM VCTS SCT015CB OVC030
      TEMPO 3003/3006 4SM -TSRA SCT005 OVC015CB
     FM300900 33004KT 6SM BR SKC
     FM301600 01005KT P6SM SKC=



000
FTUS44 KMEG 292330
TAFJBR
TAF
KJBR 292330Z 3000/3024 21012G20KT P6SM SCT100
     FM300100 23007KT P6SM VCSH SCT045
     FM300300 33007KT P6SM SCT100
     FM300800 02005KT P6SM SKC
     FM301600 07006KT P6SM SKC=



000
FTUS44 KMEG 292330
TAFMEM
TAF
KMEM 292330Z 3000/3024 19012G20KT P6SM SCT100
     FM300100 20007KT P6SM SCT100
     FM300300 23007KT P6SM VCTS SCT040CB BKN100
      TEMPO 3003/3007 VRB10G20KT 4SM TSRA BKN025 OVC040CB
     FM300700 32007KT P6SM SCT050
     FM301500 03009KT P6SM SKC
     FM301900 05005KT P6SM SKC=



000
FTUS44 KMEG 292055 AAA
TAFMKL
TAF AMD
KMKL 292055Z 2921/3018 19011KT P6SM SKC
     FM300200 22007KT P6SM VCTS SCT015CB OVC030
      TEMPO 3003/3006 4SM -TSRA SCT005 OVC015CB
     FM300900 33004KT 6SM BR SKC
     FM301600 01005KT P6SM FEW035=



000
FTUS44 KMEG 292049 AAC
TAFMEM
TAF AMD
KMEM 292049Z 2921/3018 19011KT P6SM SKC
     FM300300 23007KT P6SM VCTS SCT040CB BKN100
      TEMPO 3003/3005 VRB10G20KT 4SM TSRA BKN025 OVC040CB
     FM300700 32007KT P6SM SCT060
     FM300900 36004KT P6SM SKC
     FM301500 05009KT P6SM FEW035=



000
FTUS44 KMEG 292049 AAC
TAFMEM
TAF AMD
KMEM 292049Z 2921/3018 19011KT P6SM SKC
     FM300300 23007KT P6SM VCTS SCT040CB BKN100
      TEMPO 3003/3005 VRB10G20KT 4SM TSRA BKN025 OVC040CB
     FM300700 32007KT P6SM SCT060
     FM300900 36004KT P6SM SKC
     FM301500 05009KT P6SM FEW035=



000
FTUS44 KMEG 291930 AAB
TAFMEM
TAF AMD
KMEM 291930Z 2920/3018 20011G20KT P6SM SCT030
     FM300200 23007KT P6SM VCSH OVC030
      TEMPO 3004/3007 VRB10G20KT 4SM TSRA OVC015CB
     FM300700 32007KT P6SM -SHRA OVC040
     FM300900 36004KT P6SM SKC
     FM301500 05009KT P6SM FEW035=



000
FTUS44 KMEG 291930 AAB
TAFMEM
TAF AMD
KMEM 291930Z 2920/3018 20011G20KT P6SM SCT030
     FM300200 23007KT P6SM VCSH OVC030
      TEMPO 3004/3007 VRB10G20KT 4SM TSRA OVC015CB
     FM300700 32007KT P6SM -SHRA OVC040
     FM300900 36004KT P6SM SKC
     FM301500 05009KT P6SM FEW035=



000
FTUS44 KMEG 291837 AAA
TAFJBR
TAF AMD
KJBR 291837Z 2919/3018 18016G24KT P6SM FEW025
     FM300100 23007KT P6SM VCSH SCT045
      TEMPO 3001/3003 6SM -SHRA BKN025 OVC045
     FM300300 33007KT P6SM SCT100
     FM300800 02005KT P6SM SKC=



000
FTUS44 KMEG 291837 AAA
TAFJBR
TAF AMD
KJBR 291837Z 2919/3018 18016G24KT P6SM FEW025
     FM300100 23007KT P6SM VCSH SCT045
      TEMPO 3001/3003 6SM -SHRA BKN025 OVC045
     FM300300 33007KT P6SM SCT100
     FM300800 02005KT P6SM SKC=



000
FTUS44 KMEG 291836 AAA
TAFTUP
TAF AMD
KTUP 291836Z 2919/3018 21011G18KT P6SM SCT035
     FM300300 21007KT P6SM VCSH OVC040
      TEMPO 3005/3009 VRB10G25KT 2SM -TSRA BKN015 OVC025CB
     FM301000 36007KT 6SM BR VCSH SCT005 OVC015
     FM301400 04007KT P6SM SKC=



000
FTUS44 KMEG 291836 AAA
TAFTUP
TAF AMD
KTUP 291836Z 2919/3018 21011G18KT P6SM SCT035
     FM300300 21007KT P6SM VCSH OVC040
      TEMPO 3005/3009 VRB10G25KT 2SM -TSRA BKN015 OVC025CB
     FM301000 36007KT 6SM BR VCSH SCT005 OVC015
     FM301400 04007KT P6SM SKC=



000
FTUS44 KMEG 291826 AAA
TAFMEM
TAF AMD
KMEM 291826Z 2918/3018 17011G18KT P6SM OVC025
     FM292000 20011G20KT P6SM SCT030
     FM300200 23007KT P6SM VCSH OVC030
      TEMPO 3004/3007 VRB10G20KT 4SM TSRA OVC015CB
     FM300700 32007KT P6SM -SHRA OVC040
     FM300900 36004KT P6SM SKC
     FM301500 05009KT P6SM FEW035=



000
FTUS44 KMEG 291826 AAA
TAFMEM
TAF AMD
KMEM 291826Z 2918/3018 17011G18KT P6SM OVC025
     FM292000 20011G20KT P6SM SCT030
     FM300200 23007KT P6SM VCSH OVC030
      TEMPO 3004/3007 VRB10G20KT 4SM TSRA OVC015CB
     FM300700 32007KT P6SM -SHRA OVC040
     FM300900 36004KT P6SM SKC
     FM301500 05009KT P6SM FEW035=



000
FTUS44 KMEG 291732
TAFMKL
TAF
KMKL 291732Z 2918/3018 17011G18KT P6SM OVC035
      TEMPO 2918/2921 OVC030
     FM292200 19011KT P6SM SCT035 OVC150
     FM300200 22007KT P6SM VCTS SCT015CB OVC030
      TEMPO 3003/3006 4SM -TSRA SCT005 OVC015CB
     FM300900 33004KT 6SM BR SKC
     FM301600 01005KT P6SM FEW035=



000
FTUS44 KMEG 291732
TAFMEM
TAF
KMEM 291732Z 2918/3018 17011G18KT P6SM OVC025
     FM292100 20011G20KT P6SM SCT030 BKN150
     FM300200 23007KT P6SM VCSH OVC030
      TEMPO 3004/3007 VRB10G20KT 4SM TSRA OVC015CB
     FM300700 32007KT P6SM -SHRA OVC040
     FM300900 36004KT P6SM SKC
     FM301500 05009KT P6SM FEW035=



000
FTUS44 KMEG 291732
TAFJBR
TAF
KJBR 291732Z 2918/3018 19016G24KT P6SM OVC015
     FM300100 26007KT P6SM VCSH SCT015 OVC040
      TEMPO 3001/3003 6SM -SHRA OVC015
     FM300300 33007KT P6SM SCT100
     FM300800 02005KT P6SM SKC=



000
FTUS44 KMEG 291732
TAFTUP
TAF
KTUP 291732Z 2918/3018 18011G19KT P6SM OVC028
     FM292100 21011G18KT P6SM SCT030 OVC150
     FM300300 21007KT P6SM VCSH OVC040
      TEMPO 3005/3009 VRB10G25KT 2SM -TSRA BKN015 OVC025CB
     FM301000 36007KT 6SM BR VCSH SCT005 OVC015
     FM301400 04007KT P6SM SKC=



000
FTUS44 KMEG 291732
TAFMKL
TAF
KMKL 291732Z 2918/3018 17011G18KT P6SM OVC035
      TEMPO 2918/2921 OVC030
     FM292200 19011KT P6SM SCT035 OVC150
     FM300200 22007KT P6SM VCTS SCT015CB OVC030
      TEMPO 3003/3006 4SM -TSRA SCT005 OVC015CB
     FM300900 33004KT 6SM BR SKC
     FM301600 01005KT P6SM FEW035=



000
FTUS44 KMEG 291732
TAFTUP
TAF
KTUP 291732Z 2918/3018 18011G19KT P6SM OVC028
     FM292100 21011G18KT P6SM SCT030 OVC150
     FM300300 21007KT P6SM VCSH OVC040
      TEMPO 3005/3009 VRB10G25KT 2SM -TSRA BKN015 OVC025CB
     FM301000 36007KT 6SM BR VCSH SCT005 OVC015
     FM301400 04007KT P6SM SKC=



000
FTUS44 KMEG 291732
TAFJBR
TAF
KJBR 291732Z 2918/3018 19016G24KT P6SM OVC015
     FM300100 26007KT P6SM VCSH SCT015 OVC040
      TEMPO 3001/3003 6SM -SHRA OVC015
     FM300300 33007KT P6SM SCT100
     FM300800 02005KT P6SM SKC=



000
FTUS44 KMEG 291732
TAFMEM
TAF
KMEM 291732Z 2918/3018 17011G18KT P6SM OVC025
     FM292100 20011G20KT P6SM SCT030 BKN150
     FM300200 23007KT P6SM VCSH OVC030
      TEMPO 3004/3007 VRB10G20KT 4SM TSRA OVC015CB
     FM300700 32007KT P6SM -SHRA OVC040
     FM300900 36004KT P6SM SKC
     FM301500 05009KT P6SM FEW035=



000
FTUS44 KMEG 291623 AAB
TAFTUP
TAF AMD
KTUP 291623Z 2916/3012 18011G19KT P6SM OVC028
     FM292100 21011G18KT P6SM SCT030 OVC150
     FM300300 21007KT P6SM VCSH OVC040
      TEMPO 3005/3009 VRB10G25KT 2SM -TSRA BKN015 OVC025CB
     FM301000 36007KT P6SM SCT005 OVC015=



000
FTUS44 KMEG 291505 AAD
TAFMEM
TAF AMD
KMEM 291505Z 2915/3012 17012G20KT P6SM OVC025
     FM292100 20011G20KT P6SM SCT030 BKN150
     FM300100 23007KT P6SM VCSH OVC030
      TEMPO 3004/3007 VRB10G20KT 4SM TSRA OVC015CB
     FM300700 32007KT P6SM -SHRA OVC040
     FM300900 36004KT P6SM SKC=



000
FTUS44 KMEG 291505 AAD
TAFMEM
TAF AMD
KMEM 291505Z 2915/3012 17012G20KT P6SM OVC025
     FM292100 20011G20KT P6SM SCT030 BKN150
     FM300100 23007KT P6SM VCSH OVC030
      TEMPO 3004/3007 VRB10G20KT 4SM TSRA OVC015CB
     FM300700 32007KT P6SM -SHRA OVC040
     FM300900 36004KT P6SM SKC=



000
FTUS44 KMEG 291440 AAC
TAFMEM
TAF AMD
KMEM 291440Z 2915/3012 17012G20KT P6SM OVC025
     FM292100 20011G20KT P6SM SCT030 BKN150
     FM300100 23007KT P6SM VCSH OVC030
      TEMPO 3004/3007 VRB10G20KT 4SM TSRA OVC015CB
     FM300700 32007KT P6SM -SHRA OVC040
     FM300900 36004KT P6SM SKC=



000
FTUS44 KMEG 291435 AAB
TAFMKL
TAF AMD
KMKL 291435Z 2915/3012 16010KT P6SM SKC
     FM291600 17011G18KT P6SM OVC035
      TEMPO 2917/2921 OVC030
     FM292200 19011KT P6SM SCT035 OVC150
     FM300200 22007KT P6SM VCTS SCT015CB OVC030
      TEMPO 3003/3006 4SM -TSRA SCT005 OVC015CB
     FM300900 33004KT 6SM BR SKC=



000
FTUS44 KMEG 291434 AAA
TAFJBR
TAF AMD
KJBR 291434Z 2915/3012 16010KT P6SM BKN035
     FM291600 18012G20KT P6SM SCT018 OVC025
     FM291800 19016G24KT P6SM OVC015
     FM300100 26007KT P6SM VCTS BKN015CB OVC040
      TEMPO 3001/3003 VRB10KT 4SM -TSRA
     FM300300 33007KT P6SM SCT100
     FM300600 03002KT P6SM SKC=



000
FTUS44 KMEG 291434 AAA
TAFJBR
TAF AMD
KJBR 291434Z 2915/3012 16010KT P6SM BKN035
     FM291600 18012G20KT P6SM SCT018 OVC025
     FM291800 19016G24KT P6SM OVC015
     FM300100 26007KT P6SM VCTS BKN015CB OVC040
      TEMPO 3001/3003 VRB10KT 4SM -TSRA
     FM300300 33007KT P6SM SCT100
     FM300600 03002KT P6SM SKC=



000
FTUS44 KMEG 291426 AAA
TAFMKL
TAF AMD
KMKL 291426Z 2914/3012 16010KT P6SM SKC
     FM291600 17011G18KT P6SM OVC035
      TEMPO 2917/2921 OVC030
     FM292200 19011KT P6SM SCT035 OVC150
     FM300200 22007KT P6SM VCSH SCT015 OVC030
      TEMPO 3003/3006 4SM -SHRA SCT005 OVC015
     FM300900 33004KT 6SM BR SKC=



000
FTUS44 KMEG 291420 AAA
TAFTUP
TAF AMD
KTUP 291420Z 2914/3012 18010KT P6SM OVC040
     FM291700 18011G19KT P6SM OVC028
     FM292100 21011G18KT P6SM SCT030 OVC150
     FM300300 21007KT P6SM VCSH OVC040
      TEMPO 3005/3009 VRB10G25KT 2SM -TSRA BKN015 OVC025CB
     FM301000 36007KT P6SM SCT005 OVC015=



000
FTUS44 KMEG 291420 AAA
TAFTUP
TAF AMD
KTUP 291420Z 2914/3012 18010KT P6SM OVC040
     FM291700 18011G19KT P6SM OVC028
     FM292100 21011G18KT P6SM SCT030 OVC150
     FM300300 21007KT P6SM VCSH OVC040
      TEMPO 3005/3009 VRB10G25KT 2SM -TSRA BKN015 OVC025CB
     FM301000 36007KT P6SM SCT005 OVC015=



000
FTUS44 KMEG 291413 AAB
TAFMEM
TAF AMD
KMEM 291413Z 2914/3012 16012KT P6SM OVC035
     FM291700 17012G20KT P6SM OVC028
     FM292100 19011G20KT P6SM SCT030 BKN150
     FM300100 22007KT P6SM VCSH OVC030
      TEMPO 3002/3006 5SM -SHRA BR OVC025
     FM300600 32007KT P6SM VCSH OVC025
      TEMPO 3006/3009 4SM -TSRA OVC025CB
     FM300900 34006KT P6SM OVC250=



000
FTUS44 KMEG 291320 AAA
TAFMEM
TAF AMD
KMEM 291320Z 2913/3012 15010KT P6SM SCT045
     FM291500 16012G20KT P6SM OVC035
     FM300200 22006KT P6SM VCSH OVC040
      TEMPO 3002/3006 5SM -SHRA BR OVC025
     FM300600 32007KT P6SM VCSH OVC025
      TEMPO 3006/3009 4SM -TSRA OVC025CB
     FM300900 34006KT P6SM OVC250=



000
FTUS44 KMEG 291320 AAA
TAFMEM
TAF AMD
KMEM 291320Z 2913/3012 15010KT P6SM SCT045
     FM291500 16012G20KT P6SM OVC035
     FM300200 22006KT P6SM VCSH OVC040
      TEMPO 3002/3006 5SM -SHRA BR OVC025
     FM300600 32007KT P6SM VCSH OVC025
      TEMPO 3006/3009 4SM -TSRA OVC025CB
     FM300900 34006KT P6SM OVC250=



000
FTUS44 KMEG 291125
TAFJBR
TAF
KJBR 291125Z 2912/3012 00000KT P6SM SKC
     FM291500 17012G20KT P6SM SCT250
     FM291900 18015G25KT P6SM OVC250
     FM300100 25007KT P6SM VCSH OVC040
     FM300400 32007KT P6SM OVC100=



000
FTUS44 KMEG 291125
TAFMKL
TAF
KMKL 291125Z 2912/3012 14004KT P6SM SKC
     FM291500 17010G18KT P6SM SCT250
     FM292100 18012G20KT P6SM SCT035 OVC250
     FM300100 22007KT P6SM VCSH OVC040
      TEMPO 3002/3006 5SM -SHRA BR OVC015
     FM300900 33005KT P6SM SKC=



000
FTUS44 KMEG 291125
TAFMEM
TAF
KMEM 291125Z 2912/3012 13006KT P6SM SCT250
     FM291500 16014KT P6SM OVC250
      TEMPO 2917/2919 OVC025
     FM292000 18012G20KT P6SM SCT035
     FM300200 22007KT P6SM VCSH OVC040
      TEMPO 3002/3006 5SM -SHRA BR OVC025
     FM300600 30009KT P6SM VCSH OVC025
      TEMPO 3006/3009 4SM -TSRA OVC025CB
     FM300900 34006KT P6SM OVC250=



000
FTUS44 KMEG 291125
TAFMEM
TAF
KMEM 291125Z 2912/3012 13006KT P6SM SCT250
     FM291500 16014KT P6SM OVC250
      TEMPO 2917/2919 OVC025
     FM292000 18012G20KT P6SM SCT035
     FM300200 22007KT P6SM VCSH OVC040
      TEMPO 3002/3006 5SM -SHRA BR OVC025
     FM300600 30009KT P6SM VCSH OVC025
      TEMPO 3006/3009 4SM -TSRA OVC025CB
     FM300900 34006KT P6SM OVC250=



000
FTUS44 KMEG 291125
TAFMKL
TAF
KMKL 291125Z 2912/3012 14004KT P6SM SKC
     FM291500 17010G18KT P6SM SCT250
     FM292100 18012G20KT P6SM SCT035 OVC250
     FM300100 22007KT P6SM VCSH OVC040
      TEMPO 3002/3006 5SM -SHRA BR OVC015
     FM300900 33005KT P6SM SKC=



000
FTUS44 KMEG 291125
TAFTUP
TAF
KTUP 291125Z 2912/3012 15006KT P6SM OVC060
     FM291900 18012G20KT P6SM SCT035 BKN100
     FM300300 20007KT P6SM VCSH OVC040
      TEMPO 3004/3008 5SM -TSRA BR OVC025CB
     FM300800 26010KT P6SM VCTS OVC015CB=



000
FTUS44 KMEG 291125
TAFTUP
TAF
KTUP 291125Z 2912/3012 15006KT P6SM OVC060
     FM291900 18012G20KT P6SM SCT035 BKN100
     FM300300 20007KT P6SM VCSH OVC040
      TEMPO 3004/3008 5SM -TSRA BR OVC025CB
     FM300800 26010KT P6SM VCTS OVC015CB=



000
FTUS44 KMEG 291125
TAFJBR
TAF
KJBR 291125Z 2912/3012 00000KT P6SM SKC
     FM291500 17012G20KT P6SM SCT250
     FM291900 18015G25KT P6SM OVC250
     FM300100 25007KT P6SM VCSH OVC040
     FM300400 32007KT P6SM OVC100=



000
FTUS44 KMEG 290901 AAA
TAFMEM
TAF AMD
KMEM 290901Z 2909/3006 14004KT P6SM SKC
     FM291200 13006KT P6SM OVC035
     FM291500 16012G20KT P6SM OVC025
     FM292000 18012G20KT P6SM SCT035
     FM300200 22007KT P6SM VCSH OVC040
      TEMPO 3002/3005 5SM -SHRA BR OVC025
     FM300500 31007KT P6SM -SHRA BKN025=



000
FTUS44 KMEG 290524
TAFMKL
TAF
KMKL 290524Z 2906/3006 00000KT P6SM SKC
     FM291300 16006KT P6SM OVC035
     FM291500 16010G18KT P6SM OVC025
     FM292100 18012G20KT P6SM SCT035
     FM300100 22007KT P6SM VCSH OVC040
      TEMPO 3002/3005 5SM -SHRA BR OVC025
     FM300500 27005KT P6SM -SHRA BKN025=



000
FTUS44 KMEG 290524
TAFTUP
TAF
KTUP 290524Z 2906/3006 VRB03KT P6SM SKC
     FM291200 VRB03KT P6SM OVC035
     FM291500 16010G18KT P6SM OVC025
     FM291900 18012G20KT P6SM SCT035
     FM300300 20007KT P6SM VCSH OVC040
      TEMPO 3003/3006 5SM -SHRA BR OVC025=



000
FTUS44 KMEG 290524
TAFJBR
TAF
KJBR 290524Z 2906/3006 VRB03KT P6SM SKC
     FM291200 13008KT P6SM OVC035
     FM291500 16012G20KT P6SM OVC025
     FM292000 18015G25KT P6SM SCT035 SCT150
     FM300100 25007KT P6SM SHRA OVC040
     FM300400 32007KT P6SM SKC=



000
FTUS44 KMEG 290524
TAFMEM
TAF
KMEM 290524Z 2906/3006 VRB02KT P6SM SKC
     FM291200 13006KT P6SM OVC035
     FM291500 16012G20KT P6SM OVC025
     FM292000 18012G20KT P6SM SCT035
     FM300200 22007KT P6SM VCSH OVC040
      TEMPO 3002/3005 5SM -SHRA BR OVC025
     FM300500 31007KT P6SM -SHRA BKN025=



000
FTUS44 KMEG 290524
TAFTUP
TAF
KTUP 290524Z 2906/3006 VRB03KT P6SM SKC
     FM291200 VRB03KT P6SM OVC035
     FM291500 16010G18KT P6SM OVC025
     FM291900 18012G20KT P6SM SCT035
     FM300300 20007KT P6SM VCSH OVC040
      TEMPO 3003/3006 5SM -SHRA BR OVC025=



000
FTUS44 KMEG 290524
TAFMEM
TAF
KMEM 290524Z 2906/3006 VRB02KT P6SM SKC
     FM291200 13006KT P6SM OVC035
     FM291500 16012G20KT P6SM OVC025
     FM292000 18012G20KT P6SM SCT035
     FM300200 22007KT P6SM VCSH OVC040
      TEMPO 3002/3005 5SM -SHRA BR OVC025
     FM300500 31007KT P6SM -SHRA BKN025=



000
FTUS44 KMEG 290524
TAFJBR
TAF
KJBR 290524Z 2906/3006 VRB03KT P6SM SKC
     FM291200 13008KT P6SM OVC035
     FM291500 16012G20KT P6SM OVC025
     FM292000 18015G25KT P6SM SCT035 SCT150
     FM300100 25007KT P6SM SHRA OVC040
     FM300400 32007KT P6SM SKC=



000
FTUS44 KMEG 290524
TAFMKL
TAF
KMKL 290524Z 2906/3006 00000KT P6SM SKC
     FM291300 16006KT P6SM OVC035
     FM291500 16010G18KT P6SM OVC025
     FM292100 18012G20KT P6SM SCT035
     FM300100 22007KT P6SM VCSH OVC040
      TEMPO 3002/3005 5SM -SHRA BR OVC025
     FM300500 27005KT P6SM -SHRA BKN025=



000
FTUS44 KMEG 290256 AAA
TAFMEM
TAF AMD
KMEM 290256Z 2903/2924 11003KT P6SM SKC
     FM290900 13006KT P6SM OVC035
     FM291500 16012G20KT P6SM OVC025
     FM292000 18012G20KT P6SM SCT035=



000
FTUS44 KMEG 282331
TAFJBR
TAF
KJBR 282331Z 2900/2924 11005KT P6SM OVC070
     FM290300 12005KT P6SM SCT050
     FM291000 13008KT P6SM OVC035
     FM291500 16012G20KT P6SM OVC025
     FM292000 18015G25KT P6SM SCT035 SCT150=



000
FTUS44 KMEG 282331
TAFTUP
TAF
KTUP 282331Z 2900/2924 05006KT P6SM OVC070
     FM290600 VRB03KT P6SM BKN060
     FM291000 VRB03KT P6SM OVC035
     FM291500 16010G18KT P6SM OVC025
     FM291900 18012G20KT P6SM SCT035=



000
FTUS44 KMEG 282331
TAFJBR
TAF
KJBR 282331Z 2900/2924 11005KT P6SM OVC070
     FM290300 12005KT P6SM SCT050
     FM291000 13008KT P6SM OVC035
     FM291500 16012G20KT P6SM OVC025
     FM292000 18015G25KT P6SM SCT035 SCT150=



000
FTUS44 KMEG 282331
TAFMKL
TAF
KMKL 282331Z 2900/2924 VRB02KT P6SM SKC
     FM291100 16006KT P6SM OVC035
     FM291500 16010G18KT P6SM OVC025
     FM292100 18012G20KT P6SM SCT035=



000
FTUS44 KMEG 282331
TAFTUP
TAF
KTUP 282331Z 2900/2924 05006KT P6SM OVC070
     FM290600 VRB03KT P6SM BKN060
     FM291000 VRB03KT P6SM OVC035
     FM291500 16010G18KT P6SM OVC025
     FM291900 18012G20KT P6SM SCT035=



000
FTUS44 KMEG 282331
TAFMEM
TAF
KMEM 282331Z 2900/2924 10004KT P6SM OVC070
     FM290400 12005KT P6SM SCT050
     FM290900 13006KT P6SM OVC035
     FM291500 16012G20KT P6SM OVC025
     FM292000 18012G20KT P6SM SCT035=



000
FTUS44 KMEG 282331
TAFMKL
TAF
KMKL 282331Z 2900/2924 VRB02KT P6SM SKC
     FM291100 16006KT P6SM OVC035
     FM291500 16010G18KT P6SM OVC025
     FM292100 18012G20KT P6SM SCT035=



000
FTUS44 KMEG 282331
TAFMEM
TAF
KMEM 282331Z 2900/2924 10004KT P6SM OVC070
     FM290400 12005KT P6SM SCT050
     FM290900 13006KT P6SM OVC035
     FM291500 16012G20KT P6SM OVC025
     FM292000 18012G20KT P6SM SCT035=



000
FTUS44 KMEG 282050 AAA
TAFMEM
TAF AMD
KMEM 282050Z 2821/2918 10004KT P6SM SCT060 BKN080
     FM282200 11004KT P6SM FEW080
     FM290800 13008KT P6SM BKN050
     FM291500 16014G20KT P6SM SCT025 BKN045
      TEMPO 2915/2918 OVC025=



000
FTUS44 KMEG 282050 AAA
TAFMEM
TAF AMD
KMEM 282050Z 2821/2918 10004KT P6SM SCT060 BKN080
     FM282200 11004KT P6SM FEW080
     FM290800 13008KT P6SM BKN050
     FM291500 16014G20KT P6SM SCT025 BKN045
      TEMPO 2915/2918 OVC025=



000
FTUS44 KMEG 281726
TAFJBR
TAF
KJBR 281726Z 2818/2918 09004KT P6SM BKN035 OVC060
      TEMPO 2818/2821 6SM -SN SCT025 OVC035
     FM290100 VRB02KT P6SM SCT060
     FM291400 15012G20KT P6SM SCT025 OVC040
      TEMPO 2915/2918 OVC025=



000
FTUS44 KMEG 281726
TAFMKL
TAF
KMKL 281726Z 2818/2918 36004KT P6SM BKN080
      TEMPO 2818/2820 -SN
     FM282200 VRB02KT P6SM SKC
     FM291500 16011G18KT P6SM SCT025 BKN045
      TEMPO 2916/2918 OVC025=



000
FTUS44 KMEG 281726
TAFMEM
TAF
KMEM 281726Z 2818/2918 10006KT P6SM VCSH SCT045 OVC060
      TEMPO 2818/2820 6SM -SN
     FM282200 11005KT P6SM FEW060
     FM290800 13008KT P6SM BKN050
     FM291500 16014G20KT P6SM SCT025 BKN045
      TEMPO 2915/2918 OVC025=



000
FTUS44 KMEG 281726
TAFTUP
TAF
KTUP 281726Z 2818/2918 05006KT P6SM FEW040 OVC070
      TEMPO 2818/2822 -RASN BKN040 OVC070
     FM290300 VRB03KT P6SM FEW060
     FM291500 16011G20KT P6SM SCT020 BKN040
      TEMPO 2915/2918 OVC020=



000
FTUS44 KMEG 281726
TAFJBR
TAF
KJBR 281726Z 2818/2918 09004KT P6SM BKN035 OVC060
      TEMPO 2818/2821 6SM -SN SCT025 OVC035
     FM290100 VRB02KT P6SM SCT060
     FM291400 15012G20KT P6SM SCT025 OVC040
      TEMPO 2915/2918 OVC025=



000
FTUS44 KMEG 281726
TAFMEM
TAF
KMEM 281726Z 2818/2918 10006KT P6SM VCSH SCT045 OVC060
      TEMPO 2818/2820 6SM -SN
     FM282200 11005KT P6SM FEW060
     FM290800 13008KT P6SM BKN050
     FM291500 16014G20KT P6SM SCT025 BKN045
      TEMPO 2915/2918 OVC025=



000
FTUS44 KMEG 281726
TAFMKL
TAF
KMKL 281726Z 2818/2918 36004KT P6SM BKN080
      TEMPO 2818/2820 -SN
     FM282200 VRB02KT P6SM SKC
     FM291500 16011G18KT P6SM SCT025 BKN045
      TEMPO 2916/2918 OVC025=



000
FTUS44 KMEG 281726
TAFTUP
TAF
KTUP 281726Z 2818/2918 05006KT P6SM FEW040 OVC070
      TEMPO 2818/2822 -RASN BKN040 OVC070
     FM290300 VRB03KT P6SM FEW060
     FM291500 16011G20KT P6SM SCT020 BKN040
      TEMPO 2915/2918 OVC020=



000
FTUS44 KMEG 281641 AAB
TAFJBR
TAF AMD
KJBR 281641Z 2817/2912 08005KT P6SM -RASN SCT015 OVC035
      TEMPO 2817/2819 3SM -SN SCT025 OVC035
     FM282000 13006KT P6SM BKN050
     FM290000 00000KT P6SM SCT050
     FM290600 00000KT P6SM SKC=



000
FTUS44 KMEG 281516 AAA
TAFJBR
TAF AMD
KJBR 281516Z 2815/2912 08005KT P6SM -RASN SCT015 OVC035
      TEMPO 2815/2818 1SM -SN OVC015
     FM282000 13006KT P6SM BKN050
     FM290000 00000KT P6SM SCT050
     FM290600 00000KT P6SM SKC=



000
FTUS44 KMEG 281516 AAA
TAFJBR
TAF AMD
KJBR 281516Z 2815/2912 08005KT P6SM -RASN SCT015 OVC035
      TEMPO 2815/2818 1SM -SN OVC015
     FM282000 13006KT P6SM BKN050
     FM290000 00000KT P6SM SCT050
     FM290600 00000KT P6SM SKC=



000
FTUS44 KMEG 281512 AAA
TAFMEM
TAF AMD
KMEM 281512Z 2815/2912 10006KT P6SM VCSH BKN060 OVC080
      TEMPO 2815/2818 -RASN
     FM282200 11005KT P6SM OVC050
     FM290200 12006KT P6SM OVC250=



000
FTUS44 KMEG 281512 AAA
TAFMEM
TAF AMD
KMEM 281512Z 2815/2912 10006KT P6SM VCSH BKN060 OVC080
      TEMPO 2815/2818 -RASN
     FM282200 11005KT P6SM OVC050
     FM290200 12006KT P6SM OVC250=



000
FTUS44 KMEG 281126
TAFMKL
TAF
KMKL 281126Z 2812/2912 00000KT P6SM OVC100
     FM281300 06005KT P6SM VCSH SCT025
     FM282200 VRB03KT P6SM SKC=



000
FTUS44 KMEG 281126
TAFTUP
TAF
KTUP 281126Z 2812/2912 02004KT P6SM OVC080
     FM281700 05006KT P6SM VCSH OVC050
     FM282300 06006KT P6SM SCT050
     FM290600 VRB03KT P6SM BKN250
     FM291000 09005KT P6SM OVC100=



000
FTUS44 KMEG 281126
TAFJBR
TAF
KJBR 281126Z 2812/2912 18003KT P6SM VCSH OVC070
      TEMPO 2813/2817 5SM -RASN BR OVC020
     FM282100 11006KT P6SM BKN050
     FM290000 00000KT P6SM SCT050
     FM290600 00000KT P6SM SKC=



000
FTUS44 KMEG 281126
TAFMEM
TAF
KMEM 281126Z 2812/2912 14004KT P6SM OVC080
     FM281500 10006KT P6SM VCSH OVC050
      TEMPO 2815/2819 6SM -RA BR
     FM282200 11005KT P6SM OVC050
     FM290200 12006KT P6SM OVC250=



000
FTUS44 KMEG 280858 AAA
TAFMEM
TAF AMD
KMEM 280858Z 2809/2906 12005KT P6SM SCT080
     FM281400 09007KT P6SM VCSH BKN025 OVC050
      TEMPO 2815/2819 6SM -RA BR BKN018
     FM282200 11007KT P6SM BKN050
     FM290200 12003KT P6SM SCT050=



000
FTUS44 KMEG 280524
TAFMEM
TAF
KMEM 280524Z 2806/2906 05007KT P6SM BKN100
     FM281400 09007KT P6SM VCSH BKN025 OVC050
      TEMPO 2815/2819 6SM -RA BR BKN018
     FM282200 11007KT P6SM BKN050
     FM290200 12003KT P6SM SCT050=



000
FTUS44 KMEG 280524
TAFMKL
TAF
KMKL 280524Z 2806/2906 03009KT P6SM SCT100
     FM280700 04004KT P6SM BKN100
     FM281300 06005KT P6SM VCSH SCT025 OVC050
     FM282200 08006KT P6SM BKN050
     FM290200 10003KT P6SM SCT050=



000
FTUS44 KMEG 280524
TAFMKL
TAF
KMKL 280524Z 2806/2906 03009KT P6SM SCT100
     FM280700 04004KT P6SM BKN100
     FM281300 06005KT P6SM VCSH SCT025 OVC050
     FM282200 08006KT P6SM BKN050
     FM290200 10003KT P6SM SCT050=



000
FTUS44 KMEG 280524
TAFTUP
TAF
KTUP 280524Z 2806/2906 03007KT P6SM SCT100
     FM281000 03004KT P6SM BKN100
     FM281700 05006KT P6SM VCSH BKN025 OVC050
     FM282300 06006KT P6SM SCT025 OVC050
     FM290400 08003KT P6SM SCT050=



000
FTUS44 KMEG 280524
TAFJBR
TAF
KJBR 280524Z 2806/2906 08005KT P6SM BKN100
     FM281000 08005KT P6SM SCT025 OVC050
     FM281200 09005KT P6SM VCSH BKN025 OVC050
      TEMPO 2813/2817 5SM -RASN BR OVC018
     FM282100 11007KT P6SM BKN050
     FM290000 10003KT P6SM SCT050=



000
FTUS44 KMEG 280524
TAFMEM
TAF
KMEM 280524Z 2806/2906 05007KT P6SM BKN100
     FM281400 09007KT P6SM VCSH BKN025 OVC050
      TEMPO 2815/2819 6SM -RA BR BKN018
     FM282200 11007KT P6SM BKN050
     FM290200 12003KT P6SM SCT050=



000
FTUS44 KMEG 280524
TAFJBR
TAF
KJBR 280524Z 2806/2906 08005KT P6SM BKN100
     FM281000 08005KT P6SM SCT025 OVC050
     FM281200 09005KT P6SM VCSH BKN025 OVC050
      TEMPO 2813/2817 5SM -RASN BR OVC018
     FM282100 11007KT P6SM BKN050
     FM290000 10003KT P6SM SCT050=



000
FTUS44 KMEG 280524
TAFTUP
TAF
KTUP 280524Z 2806/2906 03007KT P6SM SCT100
     FM281000 03004KT P6SM BKN100
     FM281700 05006KT P6SM VCSH BKN025 OVC050
     FM282300 06006KT P6SM SCT025 OVC050
     FM290400 08003KT P6SM SCT050=



000
FTUS44 KMEG 280301 AAA
TAFMEM
TAF AMD
KMEM 280301Z 2803/2824 04007KT P6SM SCT100
     FM280600 06006KT P6SM BKN100
     FM281400 09007KT P6SM VCSH BKN025 OVC050
      TEMPO 2815/2819 6SM -RA BR BKN018
     FM282200 11007KT P6SM BKN050=



000
FTUS44 KMEG 280301 AAA
TAFMEM
TAF AMD
KMEM 280301Z 2803/2824 04007KT P6SM SCT100
     FM280600 06006KT P6SM BKN100
     FM281400 09007KT P6SM VCSH BKN025 OVC050
      TEMPO 2815/2819 6SM -RA BR BKN018
     FM282200 11007KT P6SM BKN050=



000
FTUS44 KMEG 272330
TAFMEM
TAF
KMEM 272330Z 2800/2824 36011KT P6SM SCT040 BKN060
     FM280200 01006KT P6SM SKC
     FM280800 04004KT P6SM BKN100
     FM281400 09007KT P6SM VCSH BKN025 OVC050
      TEMPO 2815/2819 6SM -RA BR BKN018
     FM282200 11007KT P6SM BKN050=



000
FTUS44 KMEG 272330
TAFTUP
TAF
KTUP 272330Z 2800/2824 36011G18KT P6SM VCSH SCT050 BKN070
     FM280300 01006KT P6SM SKC
     FM281000 03004KT P6SM BKN100
     FM281700 05006KT P6SM VCSH BKN025 OVC050
     FM282300 08006KT P6SM SCT025 OVC050=



000
FTUS44 KMEG 272330
TAFJBR
TAF
KJBR 272330Z 2800/2824 35008KT P6SM SCT050 BKN070
     FM280100 34005KT P6SM SKC
     FM280600 04003KT P6SM BKN100
     FM281000 08005KT P6SM SCT025 OVC050
     FM281200 09005KT P6SM VCSH BKN025 OVC050
      TEMPO 2813/2817 5SM -RASN BR OVC018
     FM282100 11007KT P6SM BKN050=



000
FTUS44 KMEG 272330
TAFMKL
TAF
KMKL 272330Z 2800/2824 34006KT P6SM SCT035 BKN050
     FM280300 01006KT P6SM SKC
     FM280700 04004KT P6SM BKN100
     FM281300 06007KT P6SM VCSH SCT035 OVC050
     FM282200 08007KT P6SM BKN050=



000
FTUS44 KMEG 272330
TAFJBR
TAF
KJBR 272330Z 2800/2824 35008KT P6SM SCT050 BKN070
     FM280100 34005KT P6SM SKC
     FM280600 04003KT P6SM BKN100
     FM281000 08005KT P6SM SCT025 OVC050
     FM281200 09005KT P6SM VCSH BKN025 OVC050
      TEMPO 2813/2817 5SM -RASN BR OVC018
     FM282100 11007KT P6SM BKN050=



000
FTUS44 KMEG 272330
TAFMEM
TAF
KMEM 272330Z 2800/2824 36011KT P6SM SCT040 BKN060
     FM280200 01006KT P6SM SKC
     FM280800 04004KT P6SM BKN100
     FM281400 09007KT P6SM VCSH BKN025 OVC050
      TEMPO 2815/2819 6SM -RA BR BKN018
     FM282200 11007KT P6SM BKN050=



000
FTUS44 KMEG 272330
TAFTUP
TAF
KTUP 272330Z 2800/2824 36011G18KT P6SM VCSH SCT050 BKN070
     FM280300 01006KT P6SM SKC
     FM281000 03004KT P6SM BKN100
     FM281700 05006KT P6SM VCSH BKN025 OVC050
     FM282300 08006KT P6SM SCT025 OVC050=



000
FTUS44 KMEG 272330
TAFMKL
TAF
KMKL 272330Z 2800/2824 34006KT P6SM SCT035 BKN050
     FM280300 01006KT P6SM SKC
     FM280700 04004KT P6SM BKN100
     FM281300 06007KT P6SM VCSH SCT035 OVC050
     FM282200 08007KT P6SM BKN050=



000
FTUS44 KMEG 272122 AAA
TAFTUP
TAF AMD
KTUP 272122Z 2721/2818 36011G18KT P6SM VCSH SCT040 OVC070
      TEMPO 2721/2724 -SHRA BKN035 OVC080
     FM280100 36005KT P6SM SCT040 BKN150
     FM280600 VRB03KT P6SM SCT250=



000
FTUS44 KMEG 272121 AAA
TAFJBR
TAF AMD
KJBR 272121Z 2721/2818 35010G16KT P6SM BKN045 OVC070
     FM280100 34005KT P6SM SKC
     FM280600 04003KT P6SM BKN100
     FM281000 10007KT P6SM FEW025 OVC050=



000
FTUS44 KMEG 272119 AAB
TAFMKL
TAF AMD
KMKL 272119Z 2721/2818 34015G23KT P6SM VCSH SCT025 OVC040
     FM280000 34006KT P6SM SKC
     FM280600 00000KT P6SM BKN100
     FM281500 05004KT P6SM SCT035 OVC050=



000
FTUS44 KMEG 272050 AAA
TAFMEM
TAF AMD
KMEM 272050Z 2721/2818 36011KT P6SM VCSH SCT030 BKN045
      TEMPO 2721/2722 -RA
     FM280100 01006KT P6SM SKC
     FM280600 04004KT P6SM BKN100
     FM281500 09007KT P6SM SCT035 OVC050=



000
FTUS44 KMEG 271902 AAA
TAFMKL
TAF AMD
KMKL 271902Z 2719/2818 34009KT P6SM VCSH SCT025 OVC040
      TEMPO 2719/2721 -RAPL BKN025 OVC035
     FM280000 34006KT P6SM SKC
     FM280600 00000KT P6SM BKN100
     FM281500 05004KT P6SM SCT035 OVC050=



000
FTUS44 KMEG 271734
TAFJBR
TAF
KJBR 271734Z 2718/2818 35010KT P6SM BKN025 OVC050
     FM272200 35009KT P6SM FEW040
     FM280100 34005KT P6SM SKC
     FM280600 04003KT P6SM BKN100
     FM281000 10007KT P6SM FEW025 OVC050=



000
FTUS44 KMEG 271734
TAFTUP
TAF
KTUP 271734Z 2718/2818 36011G18KT P6SM VCSH SCT040 OVC080
      TEMPO 2719/2723 -SHRA BKN035 OVC080
     FM280100 36005KT P6SM SCT040 BKN150
     FM280600 VRB03KT P6SM SCT250=



000
FTUS44 KMEG 271734
TAFMKL
TAF
KMKL 271734Z 2718/2818 34009KT P6SM VCSH SCT025 OVC040
      TEMPO 2718/2721 -SHRA BKN025 OVC035
     FM280100 34006KT P6SM SKC
     FM280600 00000KT P6SM BKN100
     FM281500 05004KT P6SM SCT035 OVC050=



000
FTUS44 KMEG 271734
TAFMEM
TAF
KMEM 271734Z 2718/2818 34010KT P6SM VCSH FEW025 BKN035
      TEMPO 2718/2721 -SHRA BKN025 OVC035
     FM272130 34011G19KT P6SM BKN040
     FM280100 35007KT P6SM FEW120
     FM280600 05004KT P6SM OVC100
     FM281500 09007KT P6SM SCT035 OVC050=



000
FTUS44 KMEG 271734
TAFMEM
TAF
KMEM 271734Z 2718/2818 34010KT P6SM VCSH FEW025 BKN035
      TEMPO 2718/2721 -SHRA BKN025 OVC035
     FM272130 34011G19KT P6SM BKN040
     FM280100 35007KT P6SM FEW120
     FM280600 05004KT P6SM OVC100
     FM281500 09007KT P6SM SCT035 OVC050=



000
FTUS44 KMEG 271734
TAFTUP
TAF
KTUP 271734Z 2718/2818 36011G18KT P6SM VCSH SCT040 OVC080
      TEMPO 2719/2723 -SHRA BKN035 OVC080
     FM280100 36005KT P6SM SCT040 BKN150
     FM280600 VRB03KT P6SM SCT250=



000
FTUS44 KMEG 271734
TAFJBR
TAF
KJBR 271734Z 2718/2818 35010KT P6SM BKN025 OVC050
     FM272200 35009KT P6SM FEW040
     FM280100 34005KT P6SM SKC
     FM280600 04003KT P6SM BKN100
     FM281000 10007KT P6SM FEW025 OVC050=



000
FTUS44 KMEG 271734
TAFMKL
TAF
KMKL 271734Z 2718/2818 34009KT P6SM VCSH SCT025 OVC040
      TEMPO 2718/2721 -SHRA BKN025 OVC035
     FM280100 34006KT P6SM SKC
     FM280600 00000KT P6SM BKN100
     FM281500 05004KT P6SM SCT035 OVC050=



000
FTUS44 KMEG 271511 AAB
TAFMEM
TAF AMD
KMEM 271511Z 2715/2812 34008KT P6SM VCSH SCT045 OVC070
      TEMPO 2715/2718 -SHRA SCT025 OVC045
     FM271900 34011G19KT P6SM BKN060
     FM280100 35007KT P6SM FEW150
     FM280600 05004KT P6SM OVC100=



    US Dept of Commerce
    National Oceanic and Atmospheric Administration
    National Weather Service
    1325 East West Highway
    Silver Spring, MD 20910
    Page Author: NWS Internet Services Team
Disclaimer
Information Quality
Credits
Glossary
Privacy Policy
Freedom of Information Act (FOIA)
About Us
Career Opportunities